Reddick, Florida
Current Conditions -  °F | °C
As of 12:15 AM on Wednesday 26 Nov 2014 (Local Time) from KOCF Reporting Station
Overcast Overcast  
Wind Chill: 66°   Ceiling: 300
Heat Index: 66°   Visibility: 1.7mi
Dew Point: 64°   Wind: 6mph
Humidity: 94%   Direction: 320°NW
Pressure: 29.87"   Gusts: NA
Location:  29.37°N, 82.2°W
Report Text: KOCF 260515Z AUTO 32005KT 1 3/4SM OVC003 19/18 A2987 RMK AO1
Loading
Personal Weather Stations






























Interactive Weather Map New forecast layout! Learn more

10-Day Weather Forecast

Advertisements
Track Severe Weather on mobile